createdAt,value
2023-05-13T00:03:10.435Z,70.40
2023-05-13T00:07:13.882Z,70.28
2023-05-13T00:11:17.234Z,70.31
2023-05-13T00:15:20.802Z,70.50
2023-05-13T00:19:26.064Z,70.29
2023-05-13T00:23:29.561Z,70.71
2023-05-13T00:27:33.169Z,70.81
2023-05-13T00:31:37.752Z,70.80
2023-05-13T00:35:42.768Z,70.29
2023-05-13T00:39:46.031Z,70.78
2023-05-13T00:43:49.455Z,70.18
2023-05-13T00:47:53.949Z,70.50
2023-05-13T00:51:58.979Z,70.52
2023-05-13T00:56:02.615Z,70.06
2023-05-13T01:08:37.335Z,70.76
2023-05-13T01:12:43.859Z,70.69
2023-05-13T01:16:51.769Z,70.47
2023-05-13T01:20:56.837Z,70.44
2023-05-13T01:25:02.052Z,70.22
2023-05-13T01:29:05.437Z,70.70
2023-05-13T01:33:09.016Z,70.40
2023-05-13T01:37:12.843Z,70.60
2023-05-13T01:41:18.371Z,70.53
2023-05-13T01:45:21.947Z,70.75
2023-05-13T01:49:26.007Z,70.45
2023-05-13T01:53:29.658Z,70.73
2023-05-13T01:57:34.812Z,70.01
2023-05-13T02:01:38.300Z,70.69
2023-05-13T02:05:42.169Z,70.28
2023-05-13T02:09:45.791Z,70.51
2023-05-13T02:13:51.159Z,70.39
2023-05-13T02:17:54.929Z,70.92
2023-05-13T02:21:58.418Z,70.59
2023-05-13T02:26:01.841Z,70.84
2023-05-13T02:30:08.947Z,70.46
2023-05-13T02:34:12.520Z,70.48
2023-05-13T02:38:15.989Z,70.72
2023-05-13T02:42:19.671Z,70.37
2023-05-13T02:46:24.783Z,70.66
2023-05-13T02:50:28.463Z,70.64
2023-05-13T02:54:31.991Z,70.11
2023-05-13T02:58:37.173Z,70.75
2023-05-13T03:02:42.004Z,70.67
2023-05-13T03:06:45.899Z,70.75
2023-05-13T03:10:49.359Z,70.76
2023-05-13T03:14:52.862Z,70.65
2023-05-13T03:18:58.194Z,70.99
2023-05-13T03:23:01.508Z,70.57
2023-05-13T03:27:05.008Z,70.19
2023-05-13T03:31:08.401Z,71.04
2023-05-13T03:35:13.778Z,71.06
2023-05-13T03:39:17.186Z,70.83
2023-05-13T03:43:20.900Z,70.97
2023-05-13T03:47:24.668Z,71.37
2023-05-13T03:51:29.643Z,71.03
2023-05-13T03:55:33.373Z,71.37
2023-05-13T03:59:36.718Z,70.94
2023-05-13T04:03:40.179Z,71.04
2023-05-13T04:07:45.600Z,70.83
2023-05-13T04:11:49.213Z,70.61
2023-05-13T04:15:54.772Z,70.94
2023-05-13T04:19:58.163Z,70.65
2023-05-13T04:24:03.319Z,70.81
2023-05-13T04:28:07.801Z,70.78
2023-05-13T04:32:11.077Z,70.61
2023-05-13T04:36:15.255Z,70.19
2023-05-13T04:40:21.121Z,70.08
2023-05-13T04:44:25.109Z,69.72
2023-05-13T04:48:28.618Z,70.12
2023-05-13T04:52:32.326Z,70.24
2023-05-13T04:56:37.253Z,69.90
2023-05-13T05:00:41.207Z,69.14
2023-05-13T05:04:44.621Z,69.82
2023-05-13T05:08:47.791Z,69.50
2023-05-13T05:12:52.953Z,69.43
2023-05-13T05:16:56.733Z,69.16
2023-05-13T05:21:02.451Z,68.96
2023-05-13T05:25:07.095Z,69.25
2023-05-13T05:29:12.250Z,69.29
2023-05-13T05:33:15.927Z,69.15
2023-05-13T05:37:19.635Z,68.64
2023-05-13T05:41:23.255Z,68.90
2023-05-13T05:45:28.538Z,68.75
2023-05-13T05:49:32.037Z,68.46
2023-05-13T05:53:37.905Z,67.73
2023-05-13T05:57:41.332Z,68.14
2023-05-13T06:01:46.253Z,68.20
2023-05-13T06:05:50.029Z,67.75
2023-05-13T06:09:53.488Z,67.47
2023-05-13T06:13:57.771Z,67.76
2023-05-13T06:18:06.002Z,67.02
2023-05-13T06:22:09.291Z,66.79
2023-05-13T06:26:12.871Z,66.76
2023-05-13T06:30:16.760Z,65.81
2023-05-13T06:34:21.973Z,65.74
2023-05-13T06:38:25.583Z,65.95
2023-05-13T06:42:29.024Z,65.40
2023-05-13T06:46:32.832Z,64.85
2023-05-13T06:50:37.865Z,65.30
2023-05-13T06:54:41.312Z,63.68
2023-05-13T06:58:44.744Z,62.73
2023-05-13T07:02:49.212Z,62.57
2023-05-13T07:06:55.180Z,62.30
2023-05-13T07:10:58.681Z,61.10
2023-05-13T07:15:02.250Z,60.69
2023-05-13T07:19:05.961Z,60.58
2023-05-13T07:23:10.789Z,61.48
2023-05-13T07:27:14.042Z,60.62
2023-05-13T07:31:17.494Z,60.28
2023-05-13T07:35:21.331Z,60.83
2023-05-13T07:39:26.428Z,60.31
2023-05-13T07:43:29.812Z,60.41
2023-05-13T07:47:33.899Z,60.06
2023-05-13T07:51:38.002Z,60.72
2023-05-13T07:55:42.856Z,61.77
2023-05-13T07:59:46.688Z,59.32
2023-05-13T08:03:50.059Z,61.01
2023-05-13T08:07:54.044Z,61.24
2023-05-13T08:11:58.986Z,60.10
2023-05-13T08:16:03.024Z,59.11
2023-05-13T08:20:07.145Z,57.97
2023-05-13T08:24:10.873Z,58.97
2023-05-13T08:28:16.086Z,56.80
2023-05-13T08:32:19.710Z,57.11
2023-05-13T08:36:23.452Z,55.39
2023-05-13T08:40:26.996Z,56.81
2023-05-13T08:44:33.967Z,57.48
2023-05-13T08:48:39.003Z,56.19
2023-05-13T08:52:42.340Z,53.95
2023-05-13T08:56:46.426Z,54.66
2023-05-13T09:00:54.338Z,56.31
2023-05-13T09:05:02.232Z,56.02
2023-05-13T09:09:07.145Z,54.17
2023-05-13T09:13:10.469Z,54.56
2023-05-13T09:17:18.117Z,56.73
2023-05-13T09:21:25.558Z,55.80
2023-05-13T09:25:29.946Z,54.77
2023-05-13T09:29:33.875Z,53.57
2023-05-13T09:33:38.672Z,54.09
2023-05-13T09:37:42.443Z,52.81
2023-05-13T09:41:46.144Z,50.97
2023-05-13T09:45:50.455Z,49.08
2023-05-13T09:49:57.805Z,48.83
2023-05-13T09:54:06.890Z,47.57
2023-05-13T09:58:13.788Z,52.28
2023-05-13T10:02:19.764Z,50.88
2023-05-13T10:06:26.222Z,49.06
2023-05-13T10:10:31.305Z,49.73
2023-05-13T10:14:35.057Z,49.08
2023-05-13T10:18:38.933Z,49.10
2023-05-13T10:22:44.246Z,46.38
2023-05-13T10:26:51.885Z,45.07
2023-05-13T10:30:55.742Z,45.70
2023-05-13T10:35:04.534Z,48.00
2023-05-13T10:39:34.229Z,49.50
2023-05-13T10:43:37.967Z,45.58
2023-05-13T10:47:41.456Z,46.42
2023-05-13T10:51:48.831Z,47.26
2023-05-13T10:55:57.860Z,47.30
2023-05-13T11:00:18.553Z,48.91
2023-05-13T11:04:22.815Z,45.76
2023-05-13T11:08:39.433Z,49.37
2023-05-13T11:12:44.349Z,48.22
2023-05-13T11:16:49.930Z,48.56
2023-05-13T11:20:55.208Z,50.09
2023-05-13T11:25:07.492Z,49.98
2023-05-13T11:29:12.877Z,48.18
2023-05-13T11:33:16.531Z,50.85
2023-05-13T11:37:20.571Z,50.23
2023-05-13T11:41:25.373Z,49.52
2023-05-13T11:45:31.205Z,50.14
2023-05-13T11:49:39.577Z,48.79
2023-05-13T11:53:43.268Z,49.52
2023-05-13T11:57:50.575Z,50.27
2023-05-13T12:02:04.456Z,49.50
2023-05-13T12:06:08.075Z,48.82
2023-05-13T12:10:13.204Z,47.67
2023-05-13T12:14:17.021Z,46.78
2023-05-13T12:18:21.896Z,47.77
2023-05-13T12:22:25.450Z,46.67
2023-05-13T12:26:28.749Z,46.31
2023-05-13T12:30:36.816Z,47.55
2023-05-13T12:34:41.597Z,46.98
2023-05-13T12:38:59.894Z,48.91
2023-05-13T12:43:04.656Z,45.36
2023-05-13T12:47:09.246Z,44.38
2023-05-13T12:51:15.893Z,45.38
2023-05-13T12:55:19.690Z,45.96
2023-05-13T12:59:23.449Z,44.11
2023-05-13T13:03:26.847Z,44.94
2023-05-13T13:07:31.621Z,45.10
2023-05-13T13:11:35.323Z,44.30
2023-05-13T13:15:39.568Z,44.40
2023-05-13T13:19:43.238Z,44.54
2023-05-13T13:23:47.753Z,43.96
2023-05-13T13:27:50.881Z,45.01
2023-05-13T13:31:54.438Z,45.05
2023-05-13T13:35:58.546Z,43.71
2023-05-13T13:40:03.643Z,43.96
2023-05-13T13:44:06.883Z,44.71
2023-05-13T13:48:10.195Z,44.86
2023-05-13T13:52:13.600Z,41.53
2023-05-13T13:56:18.166Z,43.25
2023-05-13T14:00:21.593Z,42.53
2023-05-13T14:04:27.705Z,43.29
2023-05-13T14:08:31.160Z,44.03
2023-05-13T14:12:39.568Z,44.38
2023-05-13T14:16:45.293Z,46.12
2023-05-13T14:20:50.888Z,45.53
2023-05-13T14:24:59.261Z,46.70
2023-05-13T14:29:06.094Z,48.22
2023-05-13T14:33:12.354Z,49.10
2023-05-13T14:41:51.354Z,50.56
2023-05-13T14:45:55.861Z,50.97
2023-05-13T14:49:59.569Z,50.28
2023-05-13T14:54:02.577Z,51.17
2023-05-13T14:58:07.688Z,50.72
2023-05-13T15:02:14.103Z,50.83
2023-05-13T15:06:18.014Z,49.31
2023-05-13T15:10:22.031Z,49.70
2023-05-13T15:14:26.025Z,50.52
2023-05-13T15:18:30.641Z,50.71
2023-05-13T15:22:34.421Z,51.08
2023-05-13T15:26:37.593Z,51.20
2023-05-13T15:30:41.231Z,51.50
2023-05-13T15:34:46.181Z,52.80
2023-05-13T15:38:49.220Z,53.06
2023-05-13T15:42:53.096Z,53.15
2023-05-13T15:46:56.921Z,53.11
2023-05-13T15:51:03.728Z,54.21
2023-05-13T15:55:08.505Z,54.28
2023-05-13T15:59:12.092Z,54.52
2023-05-13T16:03:17.208Z,54.79
2023-05-13T16:07:22.208Z,54.85
2023-05-13T16:11:25.167Z,55.25
2023-05-13T16:15:28.748Z,55.06
2023-05-13T16:19:32.043Z,54.99
2023-05-13T16:23:37.643Z,55.36
2023-05-13T16:27:44.631Z,55.23
2023-05-13T16:31:48.403Z,55.31
2023-05-13T16:35:52.030Z,55.14
2023-05-13T16:39:57.434Z,55.42
2023-05-13T16:44:01.014Z,55.82
2023-05-13T16:48:04.534Z,56.47
2023-05-13T16:52:08.754Z,56.18
2023-05-13T16:56:13.764Z,56.40
2023-05-13T17:00:17.687Z,55.85
2023-05-13T17:04:22.091Z,56.54
2023-05-13T17:08:25.652Z,56.37
2023-05-13T17:12:30.820Z,56.86
2023-05-13T17:16:34.234Z,56.91
2023-05-13T17:20:37.521Z,57.36
2023-05-13T17:24:41.245Z,57.54
2023-05-13T17:28:46.119Z,57.98
2023-05-13T17:32:49.105Z,58.25
2023-05-13T17:36:52.539Z,58.67
2023-05-13T17:40:55.934Z,59.00
2023-05-13T17:45:02.394Z,59.35
2023-05-13T17:49:05.766Z,59.57
2023-05-13T17:53:09.115Z,60.06
2023-05-13T17:57:12.176Z,59.93
2023-05-13T18:01:17.571Z,60.09
2023-05-13T18:05:21.430Z,60.02
2023-05-13T18:09:25.045Z,60.73
2023-05-13T18:13:28.545Z,61.18
2023-05-13T18:17:33.740Z,61.35
2023-05-13T18:21:36.721Z,61.41
2023-05-13T18:25:52.145Z,62.14
2023-05-13T18:29:58.443Z,62.45
2023-05-13T18:34:03.389Z,62.32
2023-05-13T18:38:06.500Z,63.13
2023-05-13T18:42:10.400Z,63.15
2023-05-13T18:46:13.607Z,63.30
2023-05-13T18:50:18.451Z,63.49
2023-05-13T18:54:21.730Z,63.57
2023-05-13T18:58:25.278Z,63.93
2023-05-13T19:02:28.693Z,63.59
2023-05-13T19:06:34.421Z,63.73
2023-05-13T19:10:40.196Z,64.00
2023-05-13T19:14:43.956Z,64.07
2023-05-13T19:18:47.978Z,64.19
2023-05-13T19:22:53.183Z,64.79
2023-05-13T19:26:56.543Z,64.77
2023-05-13T19:31:00.207Z,65.03
2023-05-13T19:35:03.814Z,65.37
2023-05-13T19:39:08.988Z,65.73
2023-05-13T19:43:12.378Z,65.92
2023-05-13T19:47:15.624Z,66.12
2023-05-13T19:51:21.228Z,66.34
2023-05-13T19:55:27.214Z,66.74
2023-05-13T19:59:32.425Z,66.88
2023-05-13T20:03:36.020Z,67.19
2023-05-13T20:07:39.099Z,67.29
2023-05-13T20:11:44.848Z,67.73
2023-05-13T20:15:47.864Z,67.92
2023-05-13T20:19:52.692Z,68.20
2023-05-13T20:23:56.687Z,68.04
2023-05-13T20:28:01.837Z,68.37
2023-05-13T20:32:05.946Z,68.82
2023-05-13T20:36:09.406Z,68.50
2023-05-13T20:40:12.963Z,68.92
2023-05-13T20:44:17.901Z,69.06
2023-05-13T20:48:20.995Z,68.91
2023-05-13T20:52:24.793Z,69.41
2023-05-13T20:56:28.390Z,69.31
2023-05-13T21:00:33.621Z,69.43
2023-05-13T21:04:36.785Z,69.54
2023-05-13T21:08:40.738Z,69.65
2023-05-13T21:12:47.876Z,69.97
2023-05-13T21:16:52.833Z,69.89
2023-05-13T21:20:55.941Z,70.03
2023-05-13T21:24:59.780Z,70.11
2023-05-13T21:29:03.003Z,69.99
2023-05-13T21:33:08.009Z,70.22
2023-05-13T21:37:11.313Z,70.31
2023-05-13T21:41:14.496Z,70.41
2023-05-13T21:45:17.781Z,70.66
2023-05-13T21:49:22.725Z,70.58
2023-05-13T21:53:26.010Z,70.89
2023-05-13T21:57:31.333Z,71.28
2023-05-13T22:01:34.645Z,71.16
2023-05-13T22:05:44.681Z,71.18
2023-05-13T22:09:49.782Z,71.56
2023-05-13T22:13:54.708Z,71.74
2023-05-13T22:17:57.797Z,71.89
2023-05-13T22:22:02.668Z,71.91
2023-05-13T22:26:06.438Z,71.78
2023-05-13T22:30:10.784Z,71.95
2023-05-13T22:34:14.077Z,72.04
2023-05-13T22:38:19.053Z,71.70
2023-05-13T22:42:23.992Z,71.55
2023-05-13T22:46:27.431Z,71.63
2023-05-13T22:50:30.854Z,71.55
2023-05-13T22:54:35.824Z,71.69
2023-05-13T22:58:39.089Z,71.38
2023-05-13T23:02:42.607Z,71.57
2023-05-13T23:06:45.725Z,71.54
2023-05-13T23:10:50.570Z,71.57
2023-05-13T23:14:54.061Z,71.32
2023-05-13T23:18:57.686Z,71.52
2023-05-13T23:23:01.268Z,71.56
2023-05-13T23:27:06.735Z,71.62
2023-05-13T23:31:10.171Z,71.42
2023-05-13T23:35:14.483Z,71.65
2023-05-13T23:39:17.692Z,71.63
2023-05-13T23:43:22.794Z,71.89
2023-05-13T23:47:26.158Z,72.11
2023-05-13T23:51:29.574Z,71.95
2023-05-13T23:55:32.571Z,72.44
2023-05-13T23:59:37.931Z,72.22
